createdAt,value
2023-05-04T00:01:57.487Z,10.05
2023-05-04T00:04:24.117Z,10.19
2023-05-04T00:06:50.760Z,10.20
2023-05-04T00:09:17.974Z,10.24
2023-05-04T00:11:44.547Z,10.11
2023-05-04T00:14:11.180Z,10.10
2023-05-04T00:16:37.860Z,10.07
2023-05-04T00:19:04.506Z,10.00
2023-05-04T00:21:31.179Z,9.96
2023-05-04T00:23:57.781Z,9.98
2023-05-04T00:26:24.415Z,9.92
2023-05-04T00:28:51.008Z,9.88
2023-05-04T00:31:19.148Z,9.88
2023-05-04T00:33:46.343Z,9.96
2023-05-04T00:36:14.050Z,9.77
2023-05-04T00:38:51.814Z,9.74
2023-05-04T00:41:20.009Z,9.81
2023-05-04T00:43:47.337Z,9.69
2023-05-04T00:46:14.489Z,9.74
2023-05-04T00:48:42.240Z,9.67
2023-05-04T00:51:11.262Z,9.58
2023-05-04T00:53:38.864Z,9.38
2023-05-04T00:56:06.825Z,9.01
2023-05-04T00:58:34.280Z,9.01
2023-05-04T01:01:02.399Z,8.93
2023-05-04T01:03:30.417Z,9.11
2023-05-04T01:06:23.433Z,9.20
2023-05-04T01:09:00.192Z,9.41
2023-05-04T01:11:50.016Z,9.51
2023-05-04T01:14:20.232Z,9.38
2023-05-04T01:16:47.388Z,9.34
2023-05-04T01:19:14.096Z,9.35
2023-05-04T01:21:40.855Z,9.33
2023-05-04T01:24:07.477Z,9.33
2023-05-04T01:26:39.666Z,9.30
2023-05-04T01:29:17.806Z,9.38
2023-05-04T01:31:46.500Z,9.30
2023-05-04T01:34:13.693Z,9.24
2023-05-04T01:36:41.760Z,9.21
2023-05-04T01:39:08.509Z,9.24
2023-05-04T01:41:36.053Z,9.26
2023-05-04T01:44:04.137Z,9.24
2023-05-04T01:46:30.818Z,9.19
2023-05-04T01:48:57.473Z,9.07
2023-05-04T01:51:24.103Z,9.05
2023-05-04T01:53:50.733Z,9.02
2023-05-04T01:56:17.539Z,9.03
2023-05-04T01:58:44.188Z,8.92
2023-05-04T02:01:11.035Z,8.93
2023-05-04T02:03:37.834Z,8.82
2023-05-04T02:06:04.582Z,8.75
2023-05-04T02:08:31.203Z,8.51
2023-05-04T02:10:57.804Z,8.48
2023-05-04T02:13:24.435Z,8.44
2023-05-04T02:15:51.132Z,8.58
2023-05-04T02:18:17.793Z,8.69
2023-05-04T02:20:44.424Z,8.59
2023-05-04T02:23:11.051Z,8.66
2023-05-04T02:25:41.690Z,8.52
2023-05-04T02:28:08.386Z,8.49
2023-05-04T02:30:35.772Z,8.33
2023-05-04T02:33:02.408Z,8.15
2023-05-04T02:35:29.161Z,7.88
2023-05-04T02:37:55.751Z,8.20
2023-05-04T02:40:22.444Z,8.33
2023-05-04T02:42:49.199Z,8.07
2023-05-04T02:45:16.040Z,8.12
2023-05-04T02:47:42.743Z,8.11
2023-05-04T02:50:09.924Z,7.95
2023-05-04T02:52:36.739Z,8.06
2023-05-04T02:55:03.773Z,7.93
2023-05-04T02:57:30.759Z,7.98
2023-05-04T02:59:57.360Z,7.89
2023-05-04T03:02:24.076Z,8.07
2023-05-04T03:04:50.977Z,8.14
2023-05-04T03:07:17.622Z,8.22
2023-05-04T03:09:46.781Z,8.18
2023-05-04T03:12:14.298Z,8.12
2023-05-04T03:14:40.919Z,8.22
2023-05-04T03:17:08.011Z,8.25
2023-05-04T03:19:34.659Z,8.30
2023-05-04T03:22:01.269Z,8.26
2023-05-04T03:24:27.867Z,8.03
2023-05-04T03:26:54.835Z,8.05
2023-05-04T03:29:21.496Z,8.12
2023-05-04T03:31:48.185Z,8.15
2023-05-04T03:34:15.199Z,8.29
2023-05-04T03:36:41.830Z,8.11
2023-05-04T03:39:08.526Z,8.23
2023-05-04T03:41:35.114Z,8.33
2023-05-04T03:44:01.753Z,8.31
2023-05-04T03:46:28.433Z,8.28
2023-05-04T03:48:55.060Z,8.12
2023-05-04T03:51:21.801Z,8.08
2023-05-04T03:53:48.492Z,8.06
2023-05-04T03:56:15.212Z,8.20
2023-05-04T03:58:41.880Z,8.39
2023-05-04T04:01:08.555Z,8.51
2023-05-04T04:03:36.714Z,8.58
2023-05-04T04:06:08.646Z,8.61
2023-05-04T04:08:35.458Z,8.71
2023-05-04T04:11:02.186Z,8.73
2023-05-04T04:13:28.825Z,8.77
2023-05-04T04:15:55.567Z,8.59
2023-05-04T04:18:24.330Z,8.55
2023-05-04T04:20:51.279Z,8.75
2023-05-04T04:23:19.390Z,8.92
2023-05-04T04:25:46.818Z,9.04
2023-05-04T04:28:14.740Z,9.12
2023-05-04T04:30:41.757Z,9.15
2023-05-04T04:33:09.469Z,9.07
2023-05-04T04:35:37.112Z,9.18
2023-05-04T04:38:04.097Z,9.28
2023-05-04T04:40:31.073Z,9.16
2023-05-04T04:42:57.788Z,9.35
2023-05-04T04:45:24.836Z,9.30
2023-05-04T04:47:51.564Z,9.53
2023-05-04T04:50:19.318Z,9.61
2023-05-04T04:52:46.419Z,9.66
2023-05-04T04:55:13.409Z,9.60
2023-05-04T04:57:40.082Z,9.61
2023-05-04T05:00:09.470Z,9.37
2023-05-04T05:02:36.968Z,8.75
2023-05-04T05:05:04.014Z,8.83
2023-05-04T05:07:30.869Z,9.14
2023-05-04T05:09:57.462Z,9.10
2023-05-04T05:12:24.247Z,9.00
2023-05-04T05:14:51.026Z,9.08
2023-05-04T05:17:19.160Z,9.27
2023-05-04T05:19:46.891Z,9.18
2023-05-04T05:22:13.634Z,9.09
2023-05-04T05:24:40.276Z,9.00
2023-05-04T05:27:06.917Z,9.10
2023-05-04T05:29:33.657Z,9.22
2023-05-04T05:32:00.339Z,9.27
2023-05-04T05:34:27.292Z,9.25
2023-05-04T05:36:54.217Z,9.42
2023-05-04T05:39:21.280Z,9.39
2023-05-04T05:41:47.936Z,9.60
2023-05-04T05:44:14.531Z,9.76
2023-05-04T05:46:41.393Z,9.63
2023-05-04T05:49:08.140Z,9.60
2023-05-04T05:51:34.911Z,9.57
2023-05-04T05:54:01.942Z,9.63
2023-05-04T05:56:28.709Z,9.59
2023-05-04T05:58:55.805Z,9.62
2023-05-04T06:01:22.598Z,9.82
2023-05-04T06:03:49.585Z,9.76
2023-05-04T06:06:17.288Z,9.59
2023-05-04T06:08:43.918Z,9.51
2023-05-04T06:11:11.826Z,9.57
2023-05-04T06:13:38.601Z,9.73
2023-05-04T06:16:05.501Z,10.01
2023-05-04T06:18:32.353Z,10.05
2023-05-04T06:20:59.752Z,9.89
2023-05-04T06:23:28.550Z,9.91
2023-05-04T06:25:55.189Z,9.82
2023-05-04T06:28:21.954Z,10.07
2023-05-04T06:30:48.872Z,10.24
2023-05-04T06:33:16.055Z,9.97
2023-05-04T06:35:42.766Z,10.17
2023-05-04T06:38:09.405Z,9.82
2023-05-04T06:40:36.259Z,9.92
2023-05-04T06:43:03.090Z,9.88
2023-05-04T06:45:29.912Z,9.73
2023-05-04T06:47:56.660Z,9.42
2023-05-04T06:50:24.057Z,9.75
2023-05-04T06:52:52.027Z,10.05
2023-05-04T06:55:19.016Z,9.72
2023-05-04T06:57:45.855Z,9.93
2023-05-04T07:00:12.993Z,10.01
2023-05-04T07:02:39.595Z,10.06
2023-05-04T07:05:06.552Z,10.12
2023-05-04T07:07:33.200Z,10.36
2023-05-04T07:09:59.989Z,10.50
2023-05-04T07:12:26.815Z,10.72
2023-05-04T07:14:53.401Z,10.67
2023-05-04T07:17:22.065Z,10.34
2023-05-04T07:19:54.538Z,10.52
2023-05-04T07:22:21.201Z,10.82
2023-05-04T07:24:47.920Z,10.53
2023-05-04T07:27:14.576Z,10.72
2023-05-04T07:29:41.722Z,10.67
2023-05-04T07:32:08.444Z,10.75
2023-05-04T07:34:45.184Z,11.00
2023-05-04T07:37:13.959Z,11.04
2023-05-04T07:39:40.609Z,11.16
2023-05-04T07:42:08.323Z,10.95
2023-05-04T07:44:34.944Z,10.67
2023-05-04T07:47:02.012Z,10.30
2023-05-04T07:49:28.911Z,10.10
2023-05-04T07:51:55.532Z,10.16
2023-05-04T07:54:23.005Z,10.29
2023-05-04T07:56:49.984Z,10.47
2023-05-04T07:59:20.206Z,10.61
2023-05-04T08:01:47.342Z,11.06
2023-05-04T08:04:14.315Z,11.44
2023-05-04T08:06:41.780Z,11.58
2023-05-04T08:09:09.139Z,12.05
2023-05-04T08:11:35.884Z,12.24
2023-05-04T08:14:02.709Z,12.19
2023-05-04T08:16:29.485Z,12.46
2023-05-04T08:19:01.198Z,12.66
2023-05-04T08:21:28.601Z,12.63
2023-05-04T08:23:55.371Z,12.79
2023-05-04T08:26:21.972Z,13.30
2023-05-04T08:28:48.979Z,13.00
2023-05-04T08:31:18.442Z,13.09
2023-05-04T08:33:48.632Z,13.16
2023-05-04T08:36:15.620Z,13.25
2023-05-04T08:38:42.337Z,13.34
2023-05-04T08:41:11.047Z,13.23
2023-05-04T08:43:37.761Z,13.15
2023-05-04T08:46:06.111Z,13.31
2023-05-04T08:48:35.946Z,13.32
2023-05-04T08:51:04.738Z,13.51
2023-05-04T08:53:32.769Z,13.68
2023-05-04T08:56:04.361Z,13.52
2023-05-04T08:58:31.796Z,13.56
2023-05-04T09:01:00.851Z,13.62
2023-05-04T09:03:28.571Z,13.15
2023-05-04T09:05:56.148Z,13.42
2023-05-04T09:08:22.940Z,13.82
2023-05-04T09:10:49.610Z,14.18
2023-05-04T09:13:16.354Z,14.31
2023-05-04T09:15:43.104Z,14.39
2023-05-04T09:18:10.106Z,15.00
2023-05-04T09:20:49.519Z,15.84
2023-05-04T09:23:17.996Z,15.95
2023-05-04T09:25:52.724Z,16.15
2023-05-04T09:28:21.682Z,16.47
2023-05-04T09:30:49.116Z,16.87
2023-05-04T09:33:16.471Z,16.88
2023-05-04T09:35:44.676Z,16.99
2023-05-04T09:38:11.386Z,16.95
2023-05-04T09:40:42.335Z,17.11
2023-05-04T09:43:10.775Z,17.38
2023-05-04T09:45:42.815Z,17.29
2023-05-04T09:48:27.080Z,17.51
2023-05-04T09:50:55.061Z,17.77
2023-05-04T09:53:24.971Z,17.80
2023-05-04T09:56:20.354Z,17.88
2023-05-04T09:58:47.477Z,18.30
2023-05-04T10:01:14.274Z,18.55
2023-05-04T10:03:42.464Z,18.45
2023-05-04T10:06:10.832Z,18.76
2023-05-04T10:08:38.467Z,18.80
2023-05-04T10:11:06.034Z,19.01
2023-05-04T10:13:32.636Z,18.94
2023-05-04T10:16:02.077Z,19.12
2023-05-04T10:18:34.633Z,19.27
2023-05-04T10:21:20.448Z,19.28
2023-05-04T10:23:56.314Z,19.36
2023-05-04T10:27:03.196Z,19.25
2023-05-04T10:29:33.397Z,19.45
2023-05-04T10:32:00.568Z,19.50
2023-05-04T10:34:32.552Z,19.91
2023-05-04T10:37:00.729Z,20.06
2023-05-04T10:39:30.332Z,20.03
2023-05-04T10:42:03.787Z,20.06
2023-05-04T10:44:49.600Z,20.23
2023-05-04T10:47:37.013Z,20.43
2023-05-04T10:50:08.742Z,20.38
2023-05-04T10:52:49.316Z,20.59
2023-05-04T10:55:16.916Z,20.59
2023-05-04T10:57:51.053Z,20.52
2023-05-04T11:00:19.198Z,20.86
2023-05-04T11:02:48.817Z,20.80
2023-05-04T11:05:20.591Z,20.96
2023-05-04T11:07:52.933Z,21.10
2023-05-04T11:10:26.523Z,21.14
2023-05-04T11:12:55.650Z,21.15
2023-05-04T11:15:22.552Z,21.13
2023-05-04T11:17:51.698Z,21.40
2023-05-04T11:20:25.401Z,21.42
2023-05-04T11:22:54.675Z,21.71
2023-05-04T11:25:28.545Z,21.91
2023-05-04T11:27:55.303Z,21.69
2023-05-04T11:30:22.256Z,21.56
2023-05-04T11:32:50.434Z,21.78
2023-05-04T11:35:19.507Z,21.99
2023-05-04T11:37:47.271Z,21.97
2023-05-04T11:40:16.694Z,21.74
2023-05-04T11:42:43.907Z,21.94
2023-05-04T11:45:19.428Z,22.02
2023-05-04T11:47:47.657Z,22.19
2023-05-04T11:50:16.760Z,22.23
2023-05-04T11:52:44.448Z,22.50
2023-05-04T11:55:12.323Z,22.54
2023-05-04T11:57:39.889Z,22.68
2023-05-04T12:00:11.520Z,22.70
2023-05-04T12:02:38.250Z,22.76
2023-05-04T12:05:12.768Z,22.74
2023-05-04T12:07:39.419Z,22.71
2023-05-04T12:10:06.490Z,22.79
2023-05-04T12:12:36.757Z,22.66
2023-05-04T12:15:03.838Z,22.49
2023-05-04T12:17:41.425Z,22.67
2023-05-04T12:20:08.523Z,22.74
2023-05-04T12:22:36.045Z,22.72
2023-05-04T12:25:02.759Z,22.60
2023-05-04T12:27:29.404Z,22.85
2023-05-04T12:29:56.213Z,23.05
2023-05-04T12:32:23.172Z,22.91
2023-05-04T12:34:49.853Z,22.88
2023-05-04T12:37:16.569Z,23.17
2023-05-04T12:39:43.173Z,23.45
2023-05-04T12:42:09.798Z,23.66
2023-05-04T12:44:36.463Z,23.65
2023-05-04T12:47:03.353Z,23.54
2023-05-04T12:49:29.964Z,23.42
2023-05-04T12:51:56.666Z,23.36
2023-05-04T12:54:23.430Z,23.37
2023-05-04T12:56:50.031Z,23.44
2023-05-04T12:59:16.726Z,23.39
2023-05-04T13:01:43.516Z,23.37
2023-05-04T13:04:10.380Z,23.37
2023-05-04T13:06:37.711Z,23.50
2023-05-04T13:09:06.116Z,23.51
2023-05-04T13:11:32.949Z,23.40
2023-05-04T13:13:59.920Z,23.49
2023-05-04T13:16:28.225Z,23.31
2023-05-04T13:18:55.543Z,23.29
2023-05-04T13:21:22.324Z,23.28
2023-05-04T13:23:49.063Z,23.46
2023-05-04T13:26:15.785Z,23.25
2023-05-04T13:28:42.682Z,23.41
2023-05-04T13:31:09.879Z,23.32
2023-05-04T13:33:39.375Z,23.31
2023-05-04T13:36:07.057Z,23.32
2023-05-04T13:38:33.710Z,23.28
2023-05-04T13:41:00.396Z,23.40
2023-05-04T13:43:27.077Z,23.30
2023-05-04T13:45:53.768Z,23.29
2023-05-04T13:48:20.423Z,23.09
2023-05-04T13:50:47.108Z,23.19
2023-05-04T13:53:13.811Z,23.22
2023-05-04T13:55:40.589Z,23.30
2023-05-04T13:58:07.467Z,23.37
2023-05-04T14:00:34.160Z,23.65
2023-05-04T14:03:00.930Z,23.65
2023-05-04T14:05:27.647Z,23.59
2023-05-04T14:07:54.240Z,23.37
2023-05-04T14:10:21.104Z,23.45
2023-05-04T14:12:47.743Z,23.36
2023-05-04T14:15:16.494Z,23.66
2023-05-04T14:17:43.355Z,23.76
2023-05-04T14:20:10.413Z,23.68
2023-05-04T14:22:38.279Z,23.71
2023-05-04T14:25:06.011Z,23.78
2023-05-04T14:27:35.415Z,23.48
2023-05-04T14:30:03.900Z,23.50
2023-05-04T14:32:30.619Z,23.52
2023-05-04T14:35:08.425Z,23.37
2023-05-04T14:37:37.967Z,23.41
2023-05-04T14:40:09.734Z,23.32
2023-05-04T14:42:37.268Z,23.31
2023-05-04T14:45:04.936Z,23.23
2023-05-04T14:47:32.282Z,23.09
2023-05-04T14:49:59.000Z,23.07
2023-05-04T14:52:26.358Z,22.98
2023-05-04T14:54:53.007Z,23.06
2023-05-04T14:57:19.601Z,22.99
2023-05-04T14:59:46.269Z,23.03
2023-05-04T15:02:12.997Z,23.06
2023-05-04T15:04:39.688Z,22.92
2023-05-04T15:07:06.371Z,22.73
2023-05-04T15:09:33.023Z,22.94
2023-05-04T15:11:59.705Z,22.91
2023-05-04T15:14:26.794Z,22.81
2023-05-04T15:16:53.483Z,23.04
2023-05-04T15:19:21.234Z,22.99
2023-05-04T15:21:49.002Z,22.73
2023-05-04T15:24:15.713Z,22.81
2023-05-04T15:26:42.368Z,22.60
2023-05-04T15:29:09.090Z,22.53
2023-05-04T15:31:35.967Z,22.63
2023-05-04T15:34:02.776Z,22.61
2023-05-04T15:36:30.848Z,22.48
2023-05-04T15:38:57.916Z,22.46
2023-05-04T15:41:24.533Z,22.39
2023-05-04T15:43:51.194Z,22.33
2023-05-04T15:46:18.126Z,22.15
2023-05-04T15:48:44.824Z,22.08
2023-05-04T15:51:12.124Z,21.95
2023-05-04T15:53:39.421Z,21.60
2023-05-04T15:56:06.437Z,21.71
2023-05-04T15:58:33.128Z,21.59
2023-05-04T16:01:03.502Z,21.47
2023-05-04T16:03:31.432Z,21.42
2023-05-04T16:05:58.265Z,21.21
2023-05-04T16:08:25.362Z,21.22
2023-05-04T16:10:53.557Z,21.10
2023-05-04T16:13:21.002Z,21.09
2023-05-04T16:15:51.625Z,20.93
2023-05-04T16:18:21.156Z,21.08
2023-05-04T16:20:48.242Z,20.94
2023-05-04T16:23:16.574Z,20.74
2023-05-04T16:25:43.813Z,20.68
2023-05-04T16:28:11.024Z,20.68
2023-05-04T16:30:37.942Z,20.42
2023-05-04T16:33:04.745Z,20.18
2023-05-04T16:35:31.939Z,20.21
2023-05-04T16:37:59.021Z,20.22
2023-05-04T16:40:25.795Z,20.15
2023-05-04T16:42:52.819Z,19.89
2023-05-04T16:45:19.684Z,19.87
2023-05-04T16:47:46.434Z,19.68
2023-05-04T16:50:14.349Z,19.48
2023-05-04T16:52:41.235Z,19.41
2023-05-04T16:55:10.764Z,19.47
2023-05-04T16:57:38.736Z,19.43
2023-05-04T17:00:06.875Z,19.43
2023-05-04T17:02:33.841Z,19.37
2023-05-04T17:05:00.534Z,19.40
2023-05-04T17:07:27.286Z,19.41
2023-05-04T17:09:54.093Z,19.44
2023-05-04T17:12:23.249Z,19.28
2023-05-04T17:14:50.158Z,19.19
2023-05-04T17:17:16.863Z,19.15
2023-05-04T17:19:43.462Z,18.91
2023-05-04T17:22:11.274Z,18.82
2023-05-04T17:24:38.019Z,18.87
2023-05-04T17:27:04.672Z,18.89
2023-05-04T17:29:31.571Z,18.90
2023-05-04T17:31:58.462Z,18.93
2023-05-04T17:34:25.178Z,19.03
2023-05-04T17:36:52.020Z,18.78
2023-05-04T17:39:18.976Z,18.58
2023-05-04T17:41:48.710Z,18.67
2023-05-04T17:44:16.478Z,18.58
2023-05-04T17:46:44.030Z,18.52
2023-05-04T17:49:10.786Z,18.49
2023-05-04T17:51:37.485Z,18.30
2023-05-04T17:54:04.131Z,18.42
2023-05-04T17:56:30.829Z,18.51
2023-05-04T17:58:57.461Z,18.39
2023-05-04T18:01:24.173Z,18.52
2023-05-04T18:03:50.923Z,18.53
2023-05-04T18:06:17.693Z,18.66
2023-05-04T18:08:44.495Z,18.72
2023-05-04T18:11:12.006Z,18.83
2023-05-04T18:13:38.694Z,18.67
2023-05-04T18:16:05.626Z,18.57
2023-05-04T18:18:32.326Z,18.44
2023-05-04T18:21:00.778Z,18.45
2023-05-04T18:23:27.495Z,18.42
2023-05-04T18:25:54.122Z,18.58
2023-05-04T18:28:20.812Z,18.47
2023-05-04T18:30:47.441Z,18.45
2023-05-04T18:33:14.067Z,18.37
2023-05-04T18:35:41.028Z,18.29
2023-05-04T18:38:07.707Z,18.27
2023-05-04T18:40:34.479Z,18.29
2023-05-04T18:43:01.100Z,18.21
2023-05-04T18:45:28.024Z,18.18
2023-05-04T18:47:54.825Z,18.08
2023-05-04T18:50:21.604Z,17.90
2023-05-04T18:52:48.244Z,17.91
2023-05-04T18:55:14.932Z,17.93
2023-05-04T18:57:41.660Z,17.85
2023-05-04T19:00:09.269Z,17.72
2023-05-04T19:02:37.084Z,17.40
2023-05-04T19:05:03.877Z,17.46
2023-05-04T19:07:30.660Z,17.39
2023-05-04T19:09:57.652Z,17.25
2023-05-04T19:12:24.287Z,17.26
2023-05-04T19:14:51.278Z,17.30
2023-05-04T19:17:18.645Z,17.07
2023-05-04T19:19:45.419Z,16.95
2023-05-04T19:22:13.384Z,17.10
2023-05-04T19:24:40.060Z,17.05
2023-05-04T19:27:07.401Z,16.88
2023-05-04T19:29:34.224Z,16.79
2023-05-04T19:32:05.614Z,16.91
2023-05-04T19:34:35.424Z,16.92
2023-05-04T19:37:02.209Z,16.89
2023-05-04T19:39:28.913Z,16.86
2023-05-04T19:41:55.539Z,16.81
2023-05-04T19:44:22.148Z,16.54
2023-05-04T19:46:51.674Z,16.54
2023-05-04T19:49:18.401Z,16.57
2023-05-04T19:51:44.987Z,16.49
2023-05-04T19:54:11.909Z,16.26
2023-05-04T19:56:38.506Z,16.29
2023-05-04T19:59:05.125Z,16.26
2023-05-04T20:01:31.792Z,16.25
2023-05-04T20:03:58.392Z,16.19
2023-05-04T20:06:25.039Z,16.05
2023-05-04T20:08:51.709Z,15.95
2023-05-04T20:11:18.388Z,15.94
2023-05-04T20:13:45.149Z,15.84
2023-05-04T20:16:12.754Z,15.80
2023-05-04T20:18:39.456Z,15.83
2023-05-04T20:21:06.120Z,15.74
2023-05-04T20:23:32.785Z,15.59
2023-05-04T20:25:59.490Z,15.65
2023-05-04T20:28:26.232Z,15.63
2023-05-04T20:30:52.932Z,15.54
2023-05-04T20:33:21.891Z,15.53
2023-05-04T20:35:48.514Z,15.44
2023-05-04T20:38:15.553Z,15.42
2023-05-04T20:40:42.271Z,15.35
2023-05-04T20:43:09.256Z,15.07
2023-05-04T20:45:35.940Z,15.18
2023-05-04T20:48:03.918Z,14.94
2023-05-04T20:50:30.592Z,15.01
2023-05-04T20:52:57.279Z,14.89
2023-05-04T20:55:23.874Z,14.65
2023-05-04T20:57:52.233Z,14.66
2023-05-04T21:00:19.055Z,14.71
2023-05-04T21:02:46.044Z,14.64
2023-05-04T21:05:12.753Z,14.60
2023-05-04T21:07:39.489Z,14.58
2023-05-04T21:10:07.072Z,14.35
2023-05-04T21:12:33.949Z,14.41
2023-05-04T21:15:00.931Z,14.19
2023-05-04T21:17:27.638Z,14.26
2023-05-04T21:19:54.257Z,14.01
2023-05-04T21:22:21.362Z,13.97
2023-05-04T21:24:48.080Z,13.85
2023-05-04T21:27:14.708Z,13.87
2023-05-04T21:29:41.347Z,13.92
2023-05-04T21:32:08.129Z,13.98
2023-05-04T21:34:34.787Z,14.02
2023-05-04T21:37:01.424Z,13.99
2023-05-04T21:39:28.101Z,13.96
2023-05-04T21:41:54.834Z,13.97
2023-05-04T21:44:21.482Z,13.90
2023-05-04T21:46:48.183Z,13.85
2023-05-04T21:49:14.921Z,13.81
2023-05-04T21:51:42.647Z,13.75
2023-05-04T21:54:09.260Z,13.62
2023-05-04T21:56:35.949Z,13.56
2023-05-04T21:59:03.139Z,13.55
2023-05-04T22:01:29.821Z,13.54
2023-05-04T22:03:56.816Z,13.44
2023-05-04T22:06:24.572Z,13.45
2023-05-04T22:08:51.267Z,13.38
2023-05-04T22:11:17.883Z,13.29
2023-05-04T22:13:44.541Z,13.23
2023-05-04T22:16:11.206Z,13.22
2023-05-04T22:18:38.079Z,13.18
2023-05-04T22:21:04.692Z,13.18
2023-05-04T22:23:31.310Z,13.15
2023-05-04T22:25:58.064Z,13.05
2023-05-04T22:28:24.661Z,13.04
2023-05-04T22:30:51.463Z,12.99
2023-05-04T22:33:18.185Z,12.82
2023-05-04T22:35:44.834Z,12.81
2023-05-04T22:38:12.049Z,12.65
2023-05-04T22:40:40.449Z,12.73
2023-05-04T22:43:07.274Z,12.48
2023-05-04T22:45:36.086Z,12.54
2023-05-04T22:48:03.087Z,12.23
2023-05-04T22:50:30.404Z,12.44
2023-05-04T22:52:57.187Z,12.42
2023-05-04T22:55:23.833Z,12.18
2023-05-04T22:57:50.448Z,12.04
2023-05-04T23:00:18.368Z,12.19
2023-05-04T23:02:45.102Z,12.24
2023-05-04T23:05:11.748Z,12.25
2023-05-04T23:07:38.612Z,12.27
2023-05-04T23:10:05.983Z,12.21
2023-05-04T23:12:32.965Z,12.22
2023-05-04T23:14:59.645Z,12.24
2023-05-04T23:17:26.369Z,12.06
2023-05-04T23:19:53.019Z,11.94
2023-05-04T23:22:19.638Z,11.43
2023-05-04T23:24:46.254Z,11.62
2023-05-04T23:27:12.940Z,11.82
2023-05-04T23:29:39.557Z,11.78
2023-05-04T23:32:06.500Z,11.86
2023-05-04T23:34:33.252Z,11.84
2023-05-04T23:36:59.897Z,11.83
2023-05-04T23:39:27.435Z,11.57
2023-05-04T23:41:54.201Z,11.57
2023-05-04T23:44:21.324Z,11.50
2023-05-04T23:46:47.963Z,11.47
2023-05-04T23:49:14.575Z,11.40
2023-05-04T23:51:41.274Z,11.06
2023-05-04T23:54:08.091Z,11.14
2023-05-04T23:56:35.954Z,11.25
2023-05-04T23:59:02.588Z,11.10
